Time;durP1;ratioP1;P1;durP2;ratioP2;P2;SDS_P1;SDS_P2;PMS_P1;PMS_P2;Temp;Humidity;BMP_temperature;BMP_pressure;BME280_temperature;BME280_humidity;BME280_pressure;Samples;Min_cycle;Max_cycle;Signal;HPM_P1;HPM_P2
2021/03/08 00:02:10;;;;;;;11.30;6.83;;;;;;;21.65;31.22;156824.72;1823289;78;21378;-68
2021/03/08 00:04:43;;;;;;;14.87;6.67;;;;;;;21.63;30.80;156820.77;1823488;78;21390;-68
2021/03/08 00:07:17;;;;;;;13.53;7.15;;;;;;;21.74;30.51;156849.87;1798811;78;21299;-68
2021/03/08 00:09:51;;;;;;;10.30;6.85;;;;;;;21.68;30.48;156833.97;1823181;78;21153;-68
2021/03/08 00:12:31;;;;;;;12.00;6.97;;;;;;;21.55;30.62;156799.50;1809014;78;21338;-68
2021/03/08 00:15:16;;;;;;;14.23;7.20;;;;;;;21.62;30.64;156818.11;1790983;78;21393;-68
2021/03/08 00:18:04;;;;;;;13.03;8.25;;;;;;;21.57;30.63;156803.56;1812755;78;21288;-68
2021/03/08 00:20:43;;;;;;;12.98;6.92;;;;;;;21.63;30.70;156819.41;1792836;79;21744;-68
2021/03/08 00:23:27;;;;;;;12.55;7.55;;;;;;;21.54;30.64;156795.56;1811892;77;21174;-67
2021/03/08 00:26:09;;;;;;;12.28;7.75;;;;;;;21.65;30.64;156824.72;1796070;79;21364;-68
2021/03/08 00:28:56;;;;;;;14.40;7.80;;;;;;;21.72;30.57;156843.23;1805383;79;21178;-67
2021/03/08 00:31:45;;;;;;;10.58;6.72;;;;;;;21.74;30.53;156849.87;1806939;79;21347;-68
2021/03/08 00:34:26;;;;;;;14.30;8.55;;;;;;;21.77;30.55;156857.78;1808364;78;21300;-68
2021/03/08 00:37:06;;;;;;;12.80;7.37;;;;;;;21.67;30.65;156831.33;1808542;79;21348;-68
2021/03/08 00:39:48;;;;;;;14.18;7.62;;;;;;;21.70;30.60;156837.97;1823465;78;21211;-68
2021/03/08 00:42:30;;;;;;;12.18;7.08;;;;;;;21.62;30.70;156818.11;1821805;77;21203;-68
2021/03/08 00:45:25;;;;;;;11.88;7.22;;;;;;;21.54;30.80;156796.84;1823065;77;21180;-67
2021/03/08 00:48:25;;;;;;;11.18;6.45;;;;;;;21.54;30.79;156796.84;1821829;78;21180;-68
2021/03/08 00:51:11;;;;;;;16.60;8.13;;;;;;;21.61;30.76;156814.11;1820885;78;21343;-68
2021/03/08 00:54:06;;;;;;;12.37;6.95;;;;;;;21.54;30.83;156795.56;1820645;79;21344;-68
2021/03/08 00:56:45;;;;;;;12.88;7.80;;;;;;;21.59;30.80;156808.81;1785123;79;21345;-68
2021/03/08 00:59:35;;;;;;;10.98;7.30;;;;;;;21.75;30.68;156852.53;1812622;79;21320;-68
2021/03/08 01:02:17;;;;;;;10.82;7.42;;;;;;;21.68;30.70;156833.97;1823422;78;21713;-67
2021/03/08 01:04:58;;;;;;;10.58;6.40;;;;;;;21.60;30.78;156812.81;1823358;77;21323;-67
2021/03/08 01:07:42;;;;;;;12.98;7.87;;;;;;;21.41;31.38;156762.44;1820708;79;21307;-68
2021/03/08 01:10:31;;;;;;;13.43;7.22;;;;;;;21.38;31.67;156753.19;1820716;77;21205;-68
2021/03/08 01:13:16;;;;;;;13.18;7.37;;;;;;;21.29;31.45;156729.38;1757107;81;21176;-68
2021/03/08 01:15:57;;;;;;;14.38;7.85;;;;;;;21.39;31.22;156755.84;1805585;79;21335;-68
2021/03/08 01:18:36;;;;;;;14.07;7.70;;;;;;;21.49;31.20;156783.66;1804946;79;21749;-68
2021/03/08 01:21:16;;;;;;;16.48;7.20;;;;;;;21.54;30.96;156796.84;1814378;79;21356;-68
2021/03/08 01:24:14;;;;;;;12.03;6.92;;;;;;;21.69;30.85;156836.63;1813516;79;21209;-68
2021/03/08 01:26:57;;;;;;;11.45;7.45;;;;;;;21.50;30.93;156786.30;1817514;77;21178;-68
2021/03/08 01:29:47;;;;;;;11.50;6.78;;;;;;;21.44;31.13;156770.39;1817497;79;21324;-68
2021/03/08 01:32:23;;;;;;;11.93;7.37;;;;;;;21.63;30.96;156820.77;1817647;77;21138;-68
2021/03/08 01:34:55;;;;;;;15.63;7.03;;;;;;;21.65;30.91;156824.72;1818131;79;21312;-68
2021/03/08 01:37:30;;;;;;;14.45;7.85;;;;;;;21.66;30.98;156828.67;1817003;79;21248;-68
2021/03/08 01:40:18;;;;;;;14.75;8.23;;;;;;;21.59;31.01;156810.16;1814500;79;21329;-68
2021/03/08 01:43:00;;;;;;;10.48;7.62;;;;;;;21.54;31.08;156795.56;1816584;77;21178;-68
2021/03/08 01:45:43;;;;;;;12.37;7.90;;;;;;;21.30;31.32;156733.33;1817735;79;21344;-67
2021/03/08 01:48:30;;;;;;;10.30;7.08;;;;;;;21.51;31.13;156788.95;1816455;79;21209;-68
2021/03/08 01:51:22;;;;;;;13.22;6.90;;;;;;;21.56;31.12;156802.20;1813166;79;21347;-68
2021/03/08 01:53:55;;;;;;;11.93;7.22;;;;;;;21.42;31.29;156765.09;1815362;79;21305;-68
2021/03/08 01:56:27;;;;;;;13.62;6.87;;;;;;;21.72;31.03;156843.23;1815069;79;21343;-67
2021/03/08 01:58:59;;;;;;;12.88;7.10;;;;;;;21.64;30.99;156823.42;1814839;79;21210;-68
2021/03/08 02:01:32;;;;;;;12.25;7.53;;;;;;;21.70;30.97;156837.97;1815598;79;21344;-67
2021/03/08 02:04:05;;;;;;;10.63;6.78;;;;;;;21.70;31.46;156839.28;1818048;79;21217;-68
2021/03/08 02:06:37;;;;;;;10.82;7.05;;;;;;;21.63;31.64;156820.77;1818114;79;21161;-67
2021/03/08 02:09:09;;;;;;;14.28;8.08;;;;;;;21.61;31.78;156814.11;1815561;79;21462;-68
2021/03/08 02:11:42;;;;;;;11.30;7.22;;;;;;;21.51;31.53;156787.59;1815253;79;21328;-68
2021/03/08 02:14:19;;;;;;;15.43;7.92;;;;;;;21.64;31.24;156822.06;1815646;79;21261;-67
2021/03/08 02:17:16;;;;;;;11.80;7.20;;;;;;;21.55;31.25;156798.20;1734305;79;21162;-68
2021/03/08 02:20:15;;;;;;;12.60;7.70;;;;;;;21.40;31.23;156759.84;1816030;78;21308;-67
2021/03/08 02:23:07;;;;;;;14.10;8.13;;;;;;;21.41;31.42;156761.14;1813290;78;21348;-67
2021/03/08 02:26:04;;;;;;;15.00;8.15;;;;;;;21.61;31.28;156815.47;1823387;78;21319;-67
2021/03/08 02:31:55;;;;;;;13.88;7.33;;;;;;;21.51;31.40;156788.95;1751765;81;21693;-67
2021/03/08 02:34:33;;;;;;;16.73;8.10;;;;;;;21.46;31.95;156774.39;1760303;80;21333;-67
2021/03/08 02:37:12;;;;;;;13.93;7.83;;;;;;;21.41;32.49;156762.44;1758200;81;21455;-68
2021/03/08 02:39:48;;;;;;;11.57;7.70;;;;;;;21.46;32.48;156775.69;1780514;80;21361;-67
2021/03/08 02:42:27;;;;;;;11.83;7.70;;;;;;;21.53;32.48;156792.91;1737488;81;21319;-67
2021/03/08 02:45:00;;;;;;;13.70;7.58;;;;;;;21.49;32.33;156782.30;1777574;79;21251;-67
2021/03/08 02:47:33;;;;;;;13.85;8.30;;;;;;;21.40;31.56;156758.48;1736448;81;21224;-67
2021/03/08 02:50:06;;;;;;;10.95;7.03;;;;;;;21.44;31.42;156770.39;1758964;80;21168;-67
2021/03/08 02:52:42;;;;;;;13.93;8.15;;;;;;;21.50;31.30;156784.95;1728546;81;21727;-67
2021/03/08 02:55:14;;;;;;;17.73;8.33;;;;;;;21.48;31.30;156781.00;1759744;80;21797;-67
2021/03/08 02:57:46;;;;;;;14.58;7.65;;;;;;;21.55;31.19;156799.50;1728389;83;21244;-68
2021/03/08 03:00:19;;;;;;;16.60;8.28;;;;;;;21.50;31.24;156786.30;1779317;80;21301;-67
2021/03/08 03:02:52;;;;;;;15.43;7.42;;;;;;;21.50;31.27;156786.30;1758483;81;21311;-67
2021/03/08 03:05:24;;;;;;;12.88;7.45;;;;;;;21.53;31.28;156794.20;1783450;80;21174;-67
2021/03/08 03:07:58;;;;;;;12.03;7.37;;;;;;;21.61;32.92;156814.11;1731403;81;21834;-67
2021/03/08 03:10:32;;;;;;;11.30;7.53;;;;;;;21.51;32.75;156787.59;1761367;80;21204;-67
2021/03/08 03:13:05;;;;;;;12.43;7.25;;;;;;;21.30;32.94;156733.33;1728691;83;21220;-68
2021/03/08 03:15:40;;;;;;;13.05;7.45;;;;;;;21.54;32.92;156796.84;1759480;80;21223;-67
2021/03/08 03:18:13;;;;;;;13.83;8.08;;;;;;;21.45;32.52;156771.75;1730161;81;21350;-67
2021/03/08 03:20:47;;;;;;;12.58;7.30;;;;;;;21.31;33.44;156735.98;1759656;80;21667;-67
2021/03/08 03:23:23;;;;;;;14.13;8.18;;;;;;;21.33;33.31;156739.98;1728322;83;21370;-67
2021/03/08 03:25:55;;;;;;;12.30;7.45;;;;;;;21.42;32.85;156765.09;1745165;81;21833;-67
2021/03/08 03:28:27;;;;;;;14.93;8.10;;;;;;;21.39;32.81;156755.84;1728449;83;21342;-67
2021/03/08 03:31:00;;;;;;;14.40;7.72;;;;;;;21.36;32.68;156747.89;1758810;80;21208;-68
2021/03/08 03:33:33;;;;;;;13.50;8.28;;;;;;;21.34;32.70;156743.94;1718607;82;21390;-67
2021/03/08 03:36:07;;;;;;;10.95;6.72;;;;;;;21.50;34.87;156784.95;1771540;80;22407;-67
2021/03/08 03:38:39;;;;;;;14.65;8.13;;;;;;;21.36;34.53;156749.23;1742071;82;21184;-67
2021/03/08 03:41:11;;;;;;;14.83;8.30;;;;;;;21.20;35.01;156706.88;1753851;80;21345;-67
2021/03/08 03:43:43;;;;;;;12.95;8.05;;;;;;;21.01;35.93;156656.63;1747829;82;21680;-67
2021/03/08 03:46:16;;;;;;;12.40;7.67;;;;;;;20.96;36.53;156643.37;1782735;79;21168;-67
2021/03/08 03:48:49;;;;;;;14.03;8.78;;;;;;;21.12;37.19;156684.42;1783499;80;21342;-67
2021/03/08 03:51:22;;;;;;;12.45;7.28;;;;;;;21.19;36.29;156702.92;1783403;80;21283;-67
2021/03/08 03:53:54;;;;;;;16.00;8.60;;;;;;;21.23;35.62;156714.83;1747550;82;21196;-67
2021/03/08 03:56:29;;;;;;;14.25;8.43;;;;;;;21.20;34.68;156705.58;1781201;80;21306;-67
2021/03/08 03:59:18;;;;;;;17.35;10.15;;;;;;;21.14;34.36;156691.03;1782982;80;21168;-67
2021/03/08 04:02:04;;;;;;;15.30;8.80;;;;;;;21.11;34.03;156681.78;1762083;79;21365;-67
2021/03/08 04:04:44;;;;;;;10.70;7.60;;;;;;;21.13;33.83;156687.03;1740712;82;21304;-66
2021/03/08 04:07:16;;;;;;;12.85;7.83;;;;;;;21.19;33.67;156704.22;1752795;80;21231;-66
2021/03/08 04:09:54;;;;;;;12.73;7.87;;;;;;;21.26;33.63;156722.78;1752529;82;21334;-67
2021/03/08 04:12:35;;;;;;;17.07;8.95;;;;;;;21.28;33.54;156726.72;1752934;80;21358;-67
2021/03/08 04:15:09;;;;;;;12.90;8.40;;;;;;;21.29;33.54;156730.73;1718044;82;21375;-67
2021/03/08 04:17:42;;;;;;;13.55;8.20;;;;;;;21.38;34.43;156754.53;1771900;80;21168;-67
2021/03/08 04:20:17;;;;;;;14.35;8.53;;;;;;;21.55;34.14;156798.20;1783605;80;21192;-67
2021/03/08 04:22:54;;;;;;;14.70;8.48;;;;;;;21.05;34.41;156667.22;1783410;79;21323;-67
2021/03/08 04:25:26;;;;;;;14.25;8.23;;;;;;;21.01;34.83;156655.27;1747401;82;21691;-67
2021/03/08 04:27:59;;;;;;;17.12;8.33;;;;;;;21.03;34.86;156660.58;1754613;80;21310;-67
2021/03/08 04:30:32;;;;;;;16.42;8.35;;;;;;;21.01;34.60;156656.63;1752727;82;21358;-67
2021/03/08 04:33:04;;;;;;;14.78;7.75;;;;;;;21.01;34.72;156656.63;1752392;81;21450;-67
2021/03/08 04:35:37;;;;;;;13.20;7.90;;;;;;;21.07;34.52;156672.47;1683917;82;21189;-67
2021/03/08 04:38:09;;;;;;;15.00;8.50;;;;;;;21.12;34.82;156685.72;1770828;80;21355;-67
2021/03/08 04:40:42;;;;;;;14.85;8.90;;;;;;;22.21;36.47;156975.63;1757108;80;21303;-67
2021/03/08 04:43:14;;;;;;;14.03;8.50;;;;;;;22.29;36.32;156995.50;1782892;80;21219;-67
2021/03/08 04:45:46;;;;;;;15.98;8.83;;;;;;;22.10;36.26;156946.50;1747442;81;21252;-67
2021/03/08 04:48:19;;;;;;;18.17;9.33;;;;;;;22.06;36.29;156934.59;1783798;80;21165;-67
2021/03/08 04:50:51;;;;;;;14.73;8.53;;;;;;;21.91;36.08;156894.86;1768950;79;21810;-67
2021/03/08 04:53:24;;;;;;;15.28;8.65;;;;;;;21.75;36.20;156852.53;1779034;80;21438;-67
2021/03/08 04:55:56;;;;;;;18.98;10.00;;;;;;;21.61;35.86;156815.47;1744937;82;21229;-67
2021/03/08 04:58:31;;;;;;;17.60;9.55;;;;;;;21.88;35.69;156888.25;1781233;80;21164;-67
2021/03/08 05:01:03;;;;;;;17.75;10.03;;;;;;;22.10;34.81;156946.50;1752822;80;21381;-67
2021/03/08 05:03:37;;;;;;;17.00;9.00;;;;;;;22.15;34.38;156959.77;1754719;80;21353;-67
2021/03/08 05:06:09;;;;;;;14.40;9.03;;;;;;;22.15;34.00;156959.77;1719660;82;21761;-67
2021/03/08 05:08:43;;;;;;;18.65;9.70;;;;;;;22.11;34.01;156947.81;1742736;81;21829;-67
2021/03/08 05:11:15;;;;;;;16.15;9.03;;;;;;;22.10;33.77;156945.20;1752600;82;21841;-67
2021/03/08 05:13:50;;;;;;;17.12;8.75;;;;;;;22.10;33.71;156946.50;1752538;82;21820;-67
2021/03/08 05:16:22;;;;;;;15.25;9.08;;;;;;;22.04;33.68;156930.64;1727244;83;21161;-67
2021/03/08 05:18:55;;;;;;;16.73;9.15;;;;;;;22.06;34.54;156934.59;1701728;83;21235;-67
2021/03/08 05:21:28;;;;;;;16.23;9.25;;;;;;;22.03;34.68;156927.98;1747842;82;21229;-67
2021/03/08 05:24:01;;;;;;;15.40;8.13;;;;;;;22.13;34.77;156953.11;1721270;83;21446;-67
2021/03/08 05:26:33;;;;;;;15.32;9.13;;;;;;;22.17;34.67;156965.03;1721263;82;21339;-67
2021/03/08 05:29:07;;;;;;;12.33;7.80;;;;;;;22.24;34.71;156982.23;1717701;83;21236;-67
2021/03/08 05:31:42;;;;;;;16.60;9.33;;;;;;;22.40;33.87;157024.69;1762908;80;21361;-67
2021/03/08 05:34:17;;;;;;;13.62;7.95;;;;;;;22.50;33.44;157051.16;1777306;79;21242;-67
2021/03/08 05:36:50;;;;;;;14.15;8.25;;;;;;;22.48;33.63;157047.22;1762486;80;21322;-68
2021/03/08 05:39:22;;;;;;;15.35;8.65;;;;;;;22.67;33.01;157097.53;1701442;83;21184;-69
2021/03/08 05:42:07;;;;;;;16.67;9.33;;;;;;;22.67;32.79;157096.22;1724901;82;21186;-68
2021/03/08 05:45:04;;;;;;;15.88;9.35;;;;;;;22.73;32.67;157112.09;1705169;81;21252;-68
2021/03/08 05:48:31;;;;;;;16.23;8.73;;;;;;;22.80;32.70;157133.28;1738225;82;21186;-69
2021/03/08 05:51:23;;;;;;;13.78;7.87;;;;;;;22.91;32.63;157161.12;1724163;83;21211;-67
2021/03/08 05:54:10;;;;;;;20.08;8.95;;;;;;;22.96;32.42;157175.69;1743302;81;21402;-69
2021/03/08 05:56:50;;;;;;;14.65;8.43;;;;;;;23.02;32.35;157190.27;1721622;82;21208;-69
2021/03/08 06:00:01;;;;;;;15.68;8.60;;;;;;;23.11;32.47;157215.50;1728442;81;21303;-69
2021/03/08 06:03:28;;;;;;;16.20;8.95;;;;;;;23.23;32.19;157247.31;1719474;82;21185;-69
2021/03/08 06:06:29;;;;;;;11.93;7.58;;;;;;;23.07;32.27;157203.59;1736046;81;21228;-68
2021/03/08 06:09:25;;;;;;;;;;;;;;;23.05;32.31;157199.58;1746976;81;21154;-69
2021/03/08 06:12:07;;;;;;;14.15;8.38;;;;;;;23.01;32.46;157188.95;1742349;81;20567;-68
2021/03/08 06:14:45;;;;;;;12.30;7.30;;;;;;;22.90;32.65;157159.81;1751725;81;21161;-68
2021/03/08 06:17:18;;;;;;;18.67;6.92;;;;;;;22.65;34.00;157090.91;1716149;82;21212;-67
2021/03/08 06:19:50;;;;;;;10.08;5.72;;;;;;;22.76;34.39;157121.36;1729937;81;21418;-68
2021/03/08 06:22:24;;;;;;;11.40;5.10;;;;;;;22.61;34.20;157080.30;1729393;81;21268;-68
2021/03/08 06:24:56;;;;;;;6.70;4.65;;;;;;;22.61;33.21;157080.30;1720598;81;21177;-68
2021/03/08 06:27:29;;;;;;;10.43;4.83;;;;;;;22.51;33.25;157053.81;1747689;80;21153;-68
2021/03/08 06:30:01;;;;;;;9.58;5.03;;;;;;;22.73;33.35;157113.45;1739502;82;21371;-68
2021/03/08 06:32:34;;;;;;;8.18;4.15;;;;;;;22.87;32.94;157151.84;1759309;81;21220;-68
2021/03/08 06:35:08;;;;;;;6.78;3.47;;;;;;;22.99;33.07;157183.66;1732218;81;21208;-68
2021/03/08 06:37:40;;;;;;;7.35;4.58;;;;;;;23.08;33.38;157207.55;1788220;80;21833;-69
2021/03/08 06:40:15;;;;;;;6.42;3.72;;;;;;;23.04;33.53;157196.88;1755886;81;21311;-69
2021/03/08 06:42:47;;;;;;;5.28;3.25;;;;;;;23.02;32.86;157191.61;1755937;81;21693;-69
2021/03/08 06:45:21;;;;;;;4.58;3.22;;;;;;;22.77;33.07;157124.00;1789498;80;21176;-69
2021/03/08 06:47:55;;;;;;;4.67;3.12;;;;;;;22.87;33.09;157150.50;1744734;81;21315;-69
2021/03/08 06:50:28;;;;;;;5.72;3.33;;;;;;;22.97;32.27;157178.34;1764582;80;21175;-69
2021/03/08 06:53:00;;;;;;;4.60;2.72;;;;;;;23.11;32.04;157214.16;1728596;83;21200;-70
2021/03/08 06:55:34;;;;;;;4.65;2.50;;;;;;;23.23;31.47;157247.31;1727490;83;21409;-69
2021/03/08 06:58:19;;;;;;;5.58;2.20;;;;;;;23.18;31.46;157234.03;1761488;80;21381;-69
2021/03/08 07:00:51;;;;;;;3.55;2.05;;;;;;;23.23;31.19;157247.31;1732685;81;21327;-69
2021/03/08 07:03:35;;;;;;;3.20;1.85;;;;;;;23.24;31.26;157249.97;1785817;79;21432;-69
2021/03/08 07:06:18;;;;;;;2.92;1.65;;;;;;;23.24;30.83;157249.97;1727186;81;21225;-68
2021/03/08 07:08:50;;;;;;;5.17;1.70;;;;;;;23.39;30.67;157288.39;1772962;80;21270;-67
2021/03/08 07:11:23;;;;;;;3.33;1.82;;;;;;;23.34;30.16;157276.47;1728430;81;21189;-67
2021/03/08 07:13:57;;;;;;;3.77;1.87;;;;;;;23.29;30.17;157263.19;1760978;80;21392;-71
2021/03/08 07:16:38;;;;;;;2.30;1.60;;;;;;;23.23;29.82;157245.95;1743006;81;21200;-67
2021/03/08 07:19:10;;;;;;;;;;;;;;;23.21;29.99;157242.00;1729541;83;21264;-68
2021/03/08 07:21:42;;;;;;;3.15;1.80;;;;;;;23.29;29.65;157263.19;1758610;80;20568;-69
2021/03/08 07:24:16;;;;;;;3.85;1.77;;;;;;;23.33;29.46;157272.47;1759368;79;21226;-69
2021/03/08 07:26:55;;;;;;;2.92;1.80;;;;;;;23.18;29.80;157234.03;1755208;80;21261;-68
2021/03/08 07:29:27;;;;;;;5.03;1.72;;;;;;;23.18;29.69;157234.03;1792999;79;21369;-68
2021/03/08 07:32:00;;;;;;;3.42;1.75;;;;;;;23.35;29.75;157279.13;1786258;79;21356;-68
2021/03/08 07:34:46;;;;;;;2.17;1.50;;;;;;;23.45;29.64;157304.27;1791824;79;21309;-66
2021/03/08 07:37:22;;;;;;;1.47;1.20;;;;;;;23.61;29.23;157348.02;1785704;79;22337;-67
2021/03/08 07:39:55;;;;;;;3.02;1.17;;;;;;;23.54;27.83;157328.17;1782825;79;21344;-68
2021/03/08 07:42:43;;;;;;;2.37;1.17;;;;;;;23.39;27.82;157288.39;1785185;79;21212;-69
2021/03/08 07:45:20;;;;;;;2.75;1.10;;;;;;;23.14;28.00;157223.47;1785594;79;21223;-69
2021/03/08 07:48:10;;;;;;;1.27;0.88;;;;;;;23.04;27.70;157195.56;1786320;79;21193;-68
2021/03/08 07:50:48;;;;;;;5.37;2.42;;;;;;;22.98;27.81;157181.00;1779006;79;21235;-70
2021/03/08 07:53:34;;;;;;;1.77;1.12;;;;;;;23.15;27.69;157224.78;1786164;80;21180;-68
2021/03/08 07:56:09;;;;;;;1.05;0.95;;;;;;;23.10;27.54;157212.84;1784865;79;21702;-69
2021/03/08 07:58:41;;;;;;;3.10;1.20;;;;;;;22.91;27.68;157162.47;1781097;80;21161;-69
2021/03/08 08:01:13;;;;;;;3.67;1.02;;;;;;;22.90;27.18;157158.47;1783017;79;21184;-69
2021/03/08 08:03:46;;;;;;;5.50;1.32;;;;;;;22.98;27.12;157179.66;1785000;79;21228;-69
2021/03/08 08:06:23;;;;;;;2.12;1.45;;;;;;;23.13;27.16;157219.47;1778018;79;21126;-68
2021/03/08 08:08:56;;;;;;;3.83;1.05;;;;;;;23.05;27.22;157199.58;1780869;79;21228;-71
2021/03/08 08:11:29;;;;;;;3.90;1.57;;;;;;;23.12;27.11;157218.16;1782877;79;21339;-71
2021/03/08 08:14:02;;;;;;;3.35;1.37;;;;;;;23.05;27.11;157199.58;1785573;79;21199;-70
2021/03/08 08:16:36;;;;;;;1.92;1.10;;;;;;;23.20;27.19;157238.05;1784313;79;21211;-69
2021/03/08 08:19:11;;;;;;;1.20;0.93;;;;;;;23.30;27.08;157264.55;1785928;80;21176;-69
2021/03/08 08:21:43;;;;;;;1.57;0.90;;;;;;;23.12;26.85;157216.81;1778164;80;21197;-71
2021/03/08 08:24:24;;;;;;;1.27;0.95;;;;;;;22.84;26.98;157142.59;1784798;79;21219;-71
2021/03/08 08:26:57;;;;;;;1.60;1.00;;;;;;;23.23;27.03;157245.95;1781365;79;21847;-70
2021/03/08 08:29:30;;;;;;;1.50;0.80;;;;;;;23.39;27.04;157289.69;1783834;79;21329;-71
2021/03/08 08:32:08;;;;;;;4.28;1.20;;;;;;;23.74;26.44;157382.48;1783849;79;21180;-72
2021/03/08 08:34:42;;;;;;;1.22;0.90;;;;;;;24.02;26.07;157456.81;1784037;79;21236;-70
2021/03/08 08:37:30;;;;;;;2.05;1.07;;;;;;;24.45;25.13;157572.27;1776049;79;21855;-73
2021/03/08 08:40:02;;;;;;;1.95;1.05;;;;;;;25.52;24.63;157857.63;1795030;79;21494;-70
2021/03/08 08:42:36;;;;;;;2.37;1.32;;;;;;;25.44;24.19;157835.05;1792854;79;22008;-71
2021/03/08 08:45:32;;;;;;;1.80;1.20;;;;;;;26.53;23.83;158128.67;1788633;79;21611;-69
2021/03/08 08:48:06;;;;;;;1.10;0.90;;;;;;;26.58;23.89;158140.63;1788532;80;21318;-69
2021/03/08 08:50:55;;;;;;;2.58;0.90;;;;;;;26.86;23.89;158216.38;1787417;80;21310;-71
2021/03/08 08:53:41;;;;;;;1.98;1.10;;;;;;;27.20;23.33;158306.81;1771211;79;22444;-70
2021/03/08 08:56:14;;;;;;;1.65;1.10;;;;;;;26.75;23.16;158187.12;1790331;79;21391;-71
2021/03/08 08:58:52;;;;;;;4.00;0.90;;;;;;;26.08;22.78;158006.41;1787575;79;21396;-71
2021/03/08 09:01:32;;;;;;;1.85;0.80;;;;;;;26.33;22.93;158072.83;1790570;79;22540;-70
2021/03/08 09:04:10;;;;;;;2.05;0.80;;;;;;;26.27;23.22;158056.91;1792267;78;21343;-68
2021/03/08 09:06:56;;;;;;;2.30;0.80;;;;;;;26.53;22.68;158127.37;1793080;79;21294;-71
2021/03/08 09:09:37;;;;;;;2.65;0.95;;;;;;;27.54;21.68;158397.25;1791858;79;21229;-71
2021/03/08 09:12:26;;;;;;;1.55;0.80;;;;;;;28.26;21.21;158590.22;1786193;79;21529;-70
2021/03/08 09:15:07;;;;;;;2.65;0.82;;;;;;;28.05;21.01;158532.94;1794826;79;22475;-70
2021/03/08 09:17:57;;;;;;;1.72;0.90;;;;;;;29.09;20.71;158812.50;1796134;78;21174;-70
2021/03/08 09:20:28;;;;;;;0.93;0.60;;;;;;;29.34;20.60;158880.39;1767504;80;21204;-69
2021/03/08 09:23:02;;;;;;;1.22;1.07;;;;;;;30.26;19.40;159125.64;1783302;79;21262;-70
2021/03/08 09:25:38;;;;;;;0.90;0.60;;;;;;;29.04;19.98;158797.88;1785353;79;21699;-70
2021/03/08 09:28:12;;;;;;;1.70;0.98;;;;;;;27.95;20.62;158507.66;1784959;79;21205;-70
2021/03/08 09:30:46;;;;;;;1.07;0.60;;;;;;;29.05;20.23;158801.84;1788162;79;21359;-70
2021/03/08 09:33:21;;;;;;;1.10;0.53;;;;;;;29.94;19.74;159038.97;1796904;79;21518;-68
2021/03/08 09:35:57;;;;;;;1.90;0.70;;;;;;;29.81;19.15;159005.63;1792982;79;21357;-72
2021/03/08 09:38:30;;;;;;;2.05;0.65;;;;;;;28.40;19.48;158627.48;1771952;79;21398;-71
2021/03/08 09:41:02;;;;;;;1.20;0.82;;;;;;;28.71;19.28;158711.28;1768868;79;21420;-72
2021/03/08 09:43:38;;;;;;;1.50;0.78;;;;;;;29.93;19.51;159037.61;1780976;79;21863;-70
2021/03/08 09:46:13;;;;;;;2.35;0.80;;;;;;;29.50;18.82;158923.08;1745066;81;21332;-68
2021/03/08 09:48:54;;;;;;;1.22;0.70;;;;;;;28.48;19.78;158648.75;1781471;79;21914;-71
2021/03/08 09:51:27;;;;;;;1.55;0.72;;;;;;;27.51;19.98;158389.27;1781852;80;21345;-73
2021/03/08 09:54:01;;;;;;;1.45;0.80;;;;;;;26.41;20.48;158095.47;1780361;79;21318;-71
2021/03/08 09:56:33;;;;;;;2.60;0.90;;;;;;;26.17;20.77;158031.66;1744370;80;21234;-73
2021/03/08 09:59:11;;;;;;;2.17;0.85;;;;;;;26.23;20.96;158046.27;1780586;79;21296;-70
2021/03/08 10:01:48;;;;;;;3.42;1.30;;;;;;;26.08;20.97;158006.41;1781250;79;21334;-71
2021/03/08 10:04:21;;;;;;;1.60;0.78;;;;;;;27.04;20.66;158262.94;1780623;79;21876;-72
2021/03/08 10:06:54;;;;;;;1.10;0.70;;;;;;;27.71;20.09;158443.86;1744095;82;21180;-73
2021/03/08 10:09:27;;;;;;;1.47;0.70;;;;;;;28.63;19.93;158688.69;1744905;80;21527;-70
2021/03/08 10:12:02;;;;;;;1.00;0.80;;;;;;;30.29;19.19;159132.28;1780731;79;21389;-74
2021/03/08 10:14:35;;;;;;;1.32;0.70;;;;;;;31.39;17.54;159428.28;1780514;79;21364;-71
2021/03/08 10:17:13;;;;;;;2.67;1.07;;;;;;;31.89;17.41;159561.73;1744409;80;21287;-73
2021/03/08 10:19:58;;;;;;;0.85;0.50;;;;;;;32.62;17.12;159757.98;1780415;79;21886;-71
2021/03/08 10:22:42;;;;;;;0.57;0.50;;;;;;;33.85;16.64;160087.91;1780560;79;21415;-73
2021/03/08 10:25:25;;;;;;;0.88;0.60;;;;;;;34.58;16.84;160284.44;1780573;79;22418;-73
2021/03/08 10:28:04;;;;;;;1.22;0.60;;;;;;;35.08;15.93;160419.48;1744665;81;21281;-71
2021/03/08 10:30:37;;;;;;;1.40;0.62;;;;;;;34.59;15.91;160287.11;1780280;79;21188;-73
2021/03/08 10:33:20;;;;;;;1.80;0.68;;;;;;;34.82;15.62;160349.97;1780456;80;21308;-72
2021/03/08 10:35:55;;;;;;;2.50;0.68;;;;;;;35.06;15.87;160414.19;1779786;79;21220;-74
2021/03/08 10:38:33;;;;;;;0.62;0.53;;;;;;;33.23;15.75;159922.22;1743926;81;21320;-69
2021/03/08 10:41:07;;;;;;;0.70;0.53;;;;;;;31.30;16.02;159404.30;1779303;80;21201;-71
2021/03/08 10:43:40;;;;;;;1.17;0.68;;;;;;;31.04;16.49;159333.64;1779954;79;21904;-72
2021/03/08 10:46:12;;;;;;;0.60;0.53;;;;;;;30.58;16.51;159212.27;1768855;80;21304;-70
2021/03/08 10:48:59;;;;;;;1.27;0.60;;;;;;;29.48;16.93;158917.75;1743568;82;21189;-71
2021/03/08 10:51:36;;;;;;;2.10;0.68;;;;;;;29.58;17.39;158943.06;1781409;79;21387;-70
2021/03/08 10:54:17;;;;;;;1.92;0.60;;;;;;;30.44;17.11;159173.58;1780710;79;21187;-71
2021/03/08 10:56:56;;;;;;;1.98;0.70;;;;;;;31.43;16.73;159438.97;1779215;79;21728;-73
2021/03/08 10:59:29;;;;;;;2.90;1.20;;;;;;;32.61;16.28;159755.31;1745336;81;21874;-70
2021/03/08 11:02:10;;;;;;;0.50;0.40;;;;;;;34.16;16.47;160173.45;1780135;80;21348;-71
2021/03/08 11:04:44;;;;;;;1.47;0.70;;;;;;;34.35;15.32;160224.27;1780463;79;21236;-71
2021/03/08 11:07:30;;;;;;;0.40;0.40;;;;;;;34.12;15.47;160160.13;1778173;79;21201;-71
2021/03/08 11:10:04;;;;;;;0.55;0.45;;;;;;;33.86;15.45;160090.59;1769328;80;21197;-72
2021/03/08 11:12:37;;;;;;;0.60;0.55;;;;;;;33.22;15.58;159920.92;1779976;80;21331;-70
2021/03/08 11:15:12;;;;;;;0.85;0.55;;;;;;;31.93;15.69;159573.73;1780277;79;21220;-70
2021/03/08 11:17:45;;;;;;;1.22;0.50;;;;;;;31.05;16.08;159336.31;1780101;80;21420;-72
2021/03/08 11:20:22;;;;;;;0.93;0.60;;;;;;;30.51;16.33;159193.62;1744815;81;21213;-72
2021/03/08 11:23:04;;;;;;;1.27;0.70;;;;;;;29.47;16.85;158915.06;1779395;79;21751;-70
2021/03/08 11:25:42;;;;;;;;;;;;;;;29.73;16.99;158983.03;1783469;79;21434;-71
2021/03/08 11:28:16;;;;;;;1.50;0.62;;;;;;;29.19;17.08;158839.13;1779843;79;20245;-70
2021/03/08 11:30:50;;;;;;;0.88;0.60;;;;;;;30.04;17.57;159066.97;1780048;79;21240;-70
2021/03/08 11:33:23;;;;;;;1.15;0.70;;;;;;;30.40;17.07;159164.27;1743229;81;21214;-71
2021/03/08 11:35:57;;;;;;;1.85;0.75;;;;;;;29.34;17.28;158877.78;1779451;80;21212;-70
2021/03/08 11:38:33;;;;;;;1.12;0.80;;;;;;;28.50;17.83;158654.09;1780025;79;21224;-70
2021/03/08 11:41:05;;;;;;;2.40;0.90;;;;;;;27.96;18.20;158509.00;1782252;79;21459;-70
2021/03/08 11:43:38;;;;;;;2.00;0.90;;;;;;;28.25;18.34;158587.55;1795078;79;21819;-73
2021/03/08 11:46:11;;;;;;;1.55;0.95;;;;;;;29.05;18.12;158801.84;1774914;79;21351;-72
2021/03/08 11:48:43;;;;;;;0.40;0.40;;;;;;;30.19;17.75;159105.64;1788529;78;21326;-69
2021/03/08 11:51:21;;;;;;;2.80;1.20;;;;;;;30.89;17.04;159293.58;1794413;78;21199;-68
2021/03/08 11:53:54;;;;;;;7.35;4.08;;;;;;;29.92;17.04;159033.63;1791692;79;21361;-71
2021/03/08 11:56:27;;;;;;;14.83;7.35;;;;;;;28.88;17.66;158756.61;1793212;79;21379;-70
2021/03/08 11:58:59;;;;;;;4.62;1.67;;;;;;;28.02;18.14;158524.94;1789193;79;21805;-69
2021/03/08 12:01:32;;;;;;;2.62;1.67;;;;;;;27.13;18.16;158288.22;1772590;79;21358;-70
2021/03/08 12:04:04;;;;;;;2.45;1.52;;;;;;;26.11;18.84;158014.38;1781532;79;21221;-69
2021/03/08 12:06:37;;;;;;;8.03;3.75;;;;;;;25.52;19.25;157857.63;1790959;79;21357;-70
2021/03/08 12:09:09;;;;;;;7.72;3.62;;;;;;;25.43;19.45;157832.37;1794478;79;21341;-70
2021/03/08 12:11:42;;;;;;;3.87;2.17;;;;;;;25.51;19.59;157853.66;1796084;79;21168;-68
2021/03/08 12:14:14;;;;;;;2.35;1.05;;;;;;;25.16;19.92;157762.05;1791202;79;21478;-70